Time;durP1;ratioP1;P1;durP2;ratioP2;P2;SDS_P1;SDS_P2;PMS_P1;PMS_P2;Temp;Humidity;BMP_temperature;BMP_pressure;BME280_temperature;BME280_humidity;BME280_pressure;Samples;Min_cycle;Max_cycle;Signal;HPM_P1;HPM_P2
2023/06/27 00:00:19;;;;;;;;;1.75;1.75;;;;;19.46;41.26;101673.41;5071856;28;53123;-70
2023/06/27 00:02:47;;;;;;;;;1.00;1.00;;;;;19.41;41.62;101665.69;5071133;28;45461;-70
2023/06/27 00:05:13;;;;;;;;;2.25;1.00;;;;;19.40;41.40;101673.72;5068145;27;45282;-71
2023/06/27 00:07:42;;;;;;;;;1.75;1.00;;;;;19.29;41.34;101667.13;5075571;27;46810;-72
2023/06/27 00:10:09;;;;;;;;;3.00;1.00;;;;;19.27;41.73;101676.97;5077053;28;45619;-72
2023/06/27 00:12:35;;;;;;;;;2.25;2.00;;;;;19.21;41.29;101674.63;5072745;28;45366;-72
2023/06/27 00:15:04;;;;;;;;;6.25;1.50;;;;;19.20;41.54;101678.19;5061804;28;46291;-72
2023/06/27 00:17:32;;;;;;;;;3.50;1.75;;;;;19.19;41.76;101680.91;5070342;28;45484;-72
2023/06/27 00:19:59;;;;;;;;;1.00;1.00;;;;;19.16;41.82;101681.94;5053589;28;45438;-72
2023/06/27 00:22:26;;;;;;;;;3.00;2.00;;;;;19.16;41.74;101679.28;5070223;28;45458;-71
2023/06/27 00:24:52;;;;;;;;;3.50;1.00;;;;;19.12;41.93;101670.63;5073044;27;45507;-73
2023/06/27 00:27:17;;;;;;;;;2.75;1.25;;;;;19.12;41.88;101681.22;5059721;27;46712;-72
2023/06/27 00:29:43;;;;;;;;;2.75;1.25;;;;;19.17;42.12;101686.28;5070566;27;45501;-71
2023/06/27 00:32:08;;;;;;;;;4.50;2.50;;;;;19.14;41.90;101687.31;5081077;27;45577;-72
2023/06/27 00:34:34;;;;;;;;;6.00;2.00;;;;;19.14;42.28;101689.09;5077089;27;56797;-71
2023/06/27 00:36:59;;;;;;;;;2.00;1.00;;;;;19.13;42.34;101688.25;5072098;28;47048;-71
2023/06/27 00:39:24;;;;;;;;;3.50;2.00;;;;;19.11;42.16;101687.47;5068854;28;66171;-73
2023/06/27 00:41:52;;;;;;;;;2.00;1.25;;;;;19.06;42.47;101684.16;5053496;28;45858;-73
2023/06/27 00:44:17;;;;;;;;;1.00;1.00;;;;;19.02;42.52;101679.94;5071729;28;45295;-72
2023/06/27 00:46:47;;;;;;;;;3.50;1.00;;;;;18.95;42.30;101682.00;5067929;28;61175;-72
2023/06/27 00:49:12;;;;;;;;;6.00;1.00;;;;;18.91;42.86;101682.22;5075588;28;45416;-72
2023/06/27 00:51:41;;;;;;;;;1.00;1.00;;;;;18.87;42.58;101686.81;5058786;28;61484;-72
2023/06/27 00:54:06;;;;;;;;;1.00;1.00;;;;;18.84;42.83;101694.06;5046877;28;50463;-72
2023/06/27 00:56:32;;;;;;;;;1.25;1.00;;;;;18.77;42.88;101683.72;5073095;27;56199;-72
2023/06/27 00:59:00;;;;;;;;;3.00;1.00;;;;;18.76;43.47;101681.13;5071054;28;60792;-72
2023/06/27 01:01:29;;;;;;;;;2.25;1.50;;;;;18.74;43.23;101689.16;5074813;28;45434;-72
2023/06/27 01:03:54;;;;;;;;;2.00;2.00;;;;;18.73;43.40;101684.78;5072687;28;45509;-72
2023/06/27 01:06:44;;;;;;;;;1.25;1.25;;;;;18.75;43.29;101677.63;5052079;28;48288;-72
2023/06/27 01:09:39;;;;;;;;;1.00;1.00;;;;;18.71;42.99;101683.13;5072288;28;45878;-72
2023/06/27 01:12:25;;;;;;;;;1.75;1.75;;;;;18.70;43.14;101687.56;5072993;28;45505;-72
2023/06/27 01:14:52;;;;;;;;;1.00;0.50;;;;;18.68;42.86;101684.13;5053241;28;45599;-72
2023/06/27 01:17:19;;;;;;;;;1.00;1.00;;;;;18.62;43.17;101679.09;5075678;28;47102;-71
2023/06/27 01:19:45;;;;;;;;;6.50;1.75;;;;;18.61;43.25;101674.75;5055255;28;45315;-73
2023/06/27 01:22:17;;;;;;;;;1.25;1.00;;;;;18.59;43.23;101687.19;5073150;27;45521;-72
2023/06/27 01:24:43;;;;;;;;;2.50;2.00;;;;;18.57;43.48;101675.78;5053536;28;45493;-71
2023/06/27 01:27:11;;;;;;;;;4.25;3.00;;;;;18.54;43.36;101671.50;5072302;28;45529;-71
2023/06/27 01:29:40;;;;;;;;;1.00;1.00;;;;;18.56;43.38;101668.78;5068993;28;45260;-71
2023/06/27 01:32:14;;;;;;;;;1.00;1.00;;;;;18.55;43.59;101665.25;5079012;27;45300;-72
2023/06/27 01:34:57;;;;;;;;;1.00;1.00;;;;;18.52;43.62;101664.53;5061675;28;45661;-71
2023/06/27 01:37:29;;;;;;;;;3.25;3.25;;;;;18.51;43.67;101669.00;5057394;28;46159;-71
2023/06/27 01:39:55;;;;;;;;;4.00;2.00;;;;;18.49;43.83;101660.25;5069299;27;45402;-71
2023/06/27 01:42:28;;;;;;;;;1.00;1.00;;;;;18.47;44.29;101659.47;5075870;27;45380;-72
2023/06/27 01:44:54;;;;;;;;;4.00;1.50;;;;;18.48;43.99;101676.22;5066305;28;45489;-72
2023/06/27 01:47:21;;;;;;;;;2.50;2.00;;;;;18.48;43.83;101666.47;5060126;28;48187;-72
2023/06/27 01:49:46;;;;;;;;;3.00;1.00;;;;;18.45;43.92;101660.44;5053144;28;45661;-73
2023/06/27 01:52:15;;;;;;;;;1.25;0.75;;;;;18.44;44.02;101664.03;5061670;28;45533;-73
2023/06/27 01:54:41;;;;;;;;;2.75;0.50;;;;;18.40;44.44;101671.28;5071246;27;45569;-73
2023/06/27 01:57:08;;;;;;;;;2.00;1.00;;;;;18.37;44.46;101663.47;5078127;28;46418;-73
2023/06/27 01:59:33;;;;;;;;;5.00;2.00;;;;;18.38;44.33;101659.88;5074431;27;45471;-73
2023/06/27 02:01:59;;;;;;;;;3.00;1.00;;;;;18.36;44.54;101662.59;5072154;27;45551;-70
2023/06/27 02:04:24;;;;;;;;;1.25;1.25;;;;;18.35;44.51;101662.66;5071942;27;45461;-71
2023/06/27 02:06:49;;;;;;;;;2.50;0.50;;;;;18.34;44.59;101661.81;5057626;28;46943;-71
2023/06/27 02:09:15;;;;;;;;;4.25;1.50;;;;;18.34;44.79;101667.13;5070900;28;63663;-71
2023/06/27 02:11:40;;;;;;;;;2.25;2.00;;;;;18.35;44.70;101666.16;5076534;27;64819;-71
2023/06/27 02:14:05;;;;;;;;;2.00;1.00;;;;;18.33;44.28;101669.84;5059772;27;56656;-71
2023/06/27 02:16:31;;;;;;;;;3.50;2.00;;;;;18.30;44.66;101662.88;5075275;28;48418;-71
2023/06/27 02:18:56;;;;;;;;;3.50;2.00;;;;;18.30;45.04;101665.50;5075095;27;46827;-71
2023/06/27 02:21:22;;;;;;;;;1.00;0.00;;;;;18.25;44.80;101662.19;5077713;28;53218;-71
2023/06/27 02:23:47;;;;;;;;;1.00;1.00;;;;;18.26;45.26;101666.59;5073185;28;45479;-71
2023/06/27 02:26:12;;;;;;;;;2.00;2.00;;;;;18.29;44.90;101668.22;5077759;27;45484;-71
2023/06/27 02:28:38;;;;;;;;;1.50;1.50;;;;;18.26;45.23;101668.38;5071415;27;64830;-72
2023/06/27 02:31:03;;;;;;;;;3.25;2.50;;;;;18.24;45.08;101672.88;5075939;27;56865;-72
2023/06/27 02:33:28;;;;;;;;;2.00;1.00;;;;;18.25;45.13;101678.09;5071524;27;60492;-72
2023/06/27 02:35:54;;;;;;;;;2.00;1.75;;;;;18.19;45.24;101667.78;5073000;27;46321;-72
2023/06/27 02:38:19;;;;;;;;;2.25;2.25;;;;;18.21;45.40;101674.72;5073768;28;63016;-72
2023/06/27 02:40:44;;;;;;;;;1.25;1.25;;;;;18.18;45.60;101674.88;5074147;27;67835;-72
2023/06/27 02:43:10;;;;;;;;;3.50;1.00;;;;;18.21;45.80;101676.53;5073931;28;46835;-72
2023/06/27 02:45:36;;;;;;;;;1.00;1.00;;;;;18.23;45.62;101681.75;5076186;27;68623;-72
2023/06/27 02:48:01;;;;;;;;;3.00;1.50;;;;;18.27;45.72;101675.38;5074045;28;45834;-72
2023/06/27 02:50:26;;;;;;;;;3.25;1.25;;;;;18.27;45.98;101678.03;5075338;27;45503;-72
2023/06/27 02:52:52;;;;;;;;;3.75;1.00;;;;;18.26;45.79;101684.28;5075175;28;64125;-71
2023/06/27 02:55:17;;;;;;;;;2.00;1.00;;;;;18.24;45.99;101684.34;5074757;28;60748;-72
2023/06/27 02:57:42;;;;;;;;;4.50;2.00;;;;;18.25;45.95;101675.44;5071910;28;52375;-71
2023/06/27 03:00:09;;;;;;;;;3.25;1.50;;;;;18.20;46.13;101675.69;5057801;28;58858;-72
2023/06/27 03:02:35;;;;;;;;;3.25;3.00;;;;;18.25;46.21;101678.09;5072870;28;45429;-72
2023/06/27 03:05:00;;;;;;;;;3.75;2.00;;;;;18.24;46.07;101675.50;5071599;27;46053;-72
2023/06/27 03:07:25;;;;;;;;;3.75;1.00;;;;;18.18;46.45;101674.88;5073107;28;45480;-71
2023/06/27 03:09:51;;;;;;;;;2.00;1.00;;;;;18.21;45.92;101672.06;5055300;28;63597;-71
2023/06/27 03:12:16;;;;;;;;;3.50;2.00;;;;;18.20;46.10;101673.03;5061020;27;45603;-72
2023/06/27 03:14:41;;;;;;;;;6.25;2.75;;;;;18.22;46.16;101683.56;5067323;27;68271;-71
2023/06/27 03:17:07;;;;;;;;;1.75;1.75;;;;;18.25;46.24;101679.91;5076844;27;45399;-72
2023/06/27 03:19:32;;;;;;;;;2.75;2.75;;;;;18.21;46.43;101677.38;5054390;28;45390;-72
2023/06/27 03:21:57;;;;;;;;;3.50;1.00;;;;;18.18;46.24;101666.06;5077712;28;45595;-71
2023/06/27 03:24:23;;;;;;;;;1.75;1.75;;;;;18.16;46.33;101668.75;5069730;28;51145;-72
2023/06/27 03:26:48;;;;;;;;;3.75;1.00;;;;;18.09;46.37;101671.75;5075585;28;64840;-72
2023/06/27 03:29:13;;;;;;;;;3.00;2.25;;;;;18.08;46.32;101678.84;5059014;28;53148;-72
2023/06/27 03:31:39;;;;;;;;;3.00;2.00;;;;;18.06;46.46;101669.25;5074312;27;55092;-72
2023/06/27 03:34:04;;;;;;;;;3.50;2.00;;;;;18.05;46.27;101663.09;5069226;27;45515;-72
2023/06/27 03:36:33;;;;;;;;;3.25;1.25;;;;;18.05;46.69;101660.44;5069091;27;71515;-71
2023/06/27 03:38:59;;;;;;;;;5.25;2.00;;;;;18.10;46.71;101660.25;5077841;28;45509;-71
2023/06/27 03:41:24;;;;;;;;;3.75;2.00;;;;;18.11;46.46;101651.34;5075166;28;45550;-70
2023/06/27 03:43:49;;;;;;;;;5.00;2.00;;;;;18.14;46.68;101659.19;5055361;28;47310;-72
2023/06/27 03:46:15;;;;;;;;;5.00;2.00;;;;;18.18;46.67;101653.69;5073007;28;62030;-72
2023/06/27 03:48:41;;;;;;;;;3.00;2.00;;;;;18.24;46.73;101652.56;5076310;28;45371;-72
2023/06/27 03:51:06;;;;;;;;;1.00;1.00;;;;;18.26;46.86;101652.47;5072331;28;45486;-71
2023/06/27 03:53:31;;;;;;;;;3.25;2.75;;;;;18.23;46.75;101658.75;5083170;27;46360;-71
2023/06/27 03:55:57;;;;;;;;;5.00;1.25;;;;;18.21;47.03;101656.19;5073675;27;50494;-71
2023/06/27 03:58:22;;;;;;;;;6.25;3.00;;;;;18.23;46.84;101657.91;5068313;27;65847;-71
2023/06/27 04:00:48;;;;;;;;;2.00;1.75;;;;;18.23;47.04;101658.75;5072331;27;45559;-71
2023/06/27 04:03:13;;;;;;;;;3.00;2.00;;;;;18.23;47.00;101655.25;5075483;27;45360;-71
2023/06/27 04:05:39;;;;;;;;;5.00;2.25;;;;;18.32;46.83;101655.69;5068879;28;66880;-71
2023/06/27 04:08:04;;;;;;;;;5.25;2.00;;;;;18.33;46.71;101657.44;5073308;27;67228;-71
2023/06/27 04:10:29;;;;;;;;;5.00;2.00;;;;;18.35;46.83;101660.88;5052592;28;73324;-72
2023/06/27 04:12:59;;;;;;;;;4.25;2.00;;;;;18.37;46.81;101663.47;5077626;27;46245;-72
2023/06/27 04:15:25;;;;;;;;;6.75;3.00;;;;;18.36;47.19;101653.78;5056576;28;45553;-71
2023/06/27 04:17:50;;;;;;;;;2.00;1.50;;;;;18.37;46.94;101664.31;5072888;27;65453;-71
2023/06/27 04:20:15;;;;;;;;;5.00;2.00;;;;;18.35;47.12;101671.47;5070062;27;50086;-71
2023/06/27 04:22:41;;;;;;;;;3.25;2.50;;;;;18.32;47.23;101668.94;5065825;28;45449;-72
2023/06/27 04:25:10;;;;;;;;;5.75;1.00;;;;;18.32;47.09;101665.44;5072798;28;45463;-72
2023/06/27 04:27:36;;;;;;;;;5.00;2.00;;;;;18.26;47.09;101674.53;5071486;28;45566;-73
2023/06/27 04:30:02;;;;;;;;;4.25;2.00;;;;;18.24;47.49;101667.56;5074535;27;45537;-72
2023/06/27 04:32:27;;;;;;;;;3.50;3.00;;;;;18.29;47.70;101663.81;5074210;27;45504;-72
2023/06/27 04:34:57;;;;;;;;;2.50;1.75;;;;;18.30;47.62;101668.16;5065695;27;56110;-72
2023/06/27 04:37:23;;;;;;;;;2.25;1.75;;;;;18.29;47.74;101666.47;5073305;28;46060;-72
2023/06/27 04:39:48;;;;;;;;;1.50;1.00;;;;;18.27;48.04;101664.78;5067268;28;45980;-71
2023/06/27 04:42:14;;;;;;;;;4.00;3.00;;;;;18.25;47.76;101661.34;5076538;27;45279;-72
2023/06/27 04:44:39;;;;;;;;;2.25;2.25;;;;;18.28;48.08;101663.88;5073819;27;45259;-72
2023/06/27 04:47:05;;;;;;;;;2.75;2.25;;;;;18.26;48.01;101653.34;5073807;28;60859;-72
2023/06/27 04:49:30;;;;;;;;;5.50;2.50;;;;;18.29;47.85;101653.22;5057677;27;45409;-72
2023/06/27 04:51:56;;;;;;;;;2.75;1.75;;;;;18.27;48.20;101656.84;5074085;27;46429;-71
2023/06/27 04:54:21;;;;;;;;;7.00;3.00;;;;;18.23;48.35;101655.25;5064138;28;45317;-72
2023/06/27 04:56:47;;;;;;;;;2.00;2.00;;;;;18.19;48.64;101647.44;5063500;27;45587;-72
2023/06/27 04:59:12;;;;;;;;;2.25;2.00;;;;;18.20;48.66;101645.66;5071931;28;45344;-72
2023/06/27 05:01:38;;;;;;;;;6.00;2.25;;;;;18.25;48.56;101648.94;5057127;28;47833;-72
2023/06/27 05:04:06;;;;;;;;;3.00;3.00;;;;;18.27;49.36;101648.88;5076727;27;45674;-72
2023/06/27 05:06:32;;;;;;;;;1.50;1.25;;;;;18.16;49.12;101649.38;5075366;28;45446;-72
2023/06/27 05:08:58;;;;;;;;;3.75;2.75;;;;;18.12;49.05;101655.75;5069966;27;45240;-72
2023/06/27 05:11:23;;;;;;;;;5.00;2.75;;;;;18.12;49.53;101653.09;5074876;27;46493;-72
2023/06/27 05:13:48;;;;;;;;;4.00;2.50;;;;;18.18;49.49;101656.34;5075309;28;45329;-72
2023/06/27 05:16:14;;;;;;;;;4.00;3.00;;;;;18.24;50.10;101662.25;5077410;27;45374;-72
2023/06/27 05:18:41;;;;;;;;;4.25;3.00;;;;;18.20;49.89;101666.84;5074140;27;45292;-72
2023/06/27 05:21:06;;;;;;;;;4.50;3.00;;;;;18.20;50.05;101667.72;5074071;27;47961;-72
2023/06/27 05:23:32;;;;;;;;;5.25;2.00;;;;;18.23;50.06;101658.75;5076769;27;45610;-72
2023/06/27 05:25:58;;;;;;;;;2.50;2.00;;;;;18.28;50.01;101667.38;5072278;28;56448;-72
2023/06/27 05:28:23;;;;;;;;;5.00;3.75;;;;;18.33;49.78;101675.97;5066674;28;45344;-72
2023/06/27 05:30:49;;;;;;;;;5.50;3.75;;;;;18.26;50.24;101677.19;5061592;28;46122;-74
2023/06/27 05:33:14;;;;;;;;;4.75;2.00;;;;;18.26;50.64;101674.53;5055993;28;45501;-72
2023/06/27 05:35:40;;;;;;;;;4.00;3.00;;;;;18.29;50.46;101682.34;5079145;27;45461;-72
2023/06/27 05:38:05;;;;;;;;;3.25;2.00;;;;;18.37;50.61;101679.34;5073828;28;45610;-72
2023/06/27 05:40:31;;;;;;;;;2.50;2.00;;;;;18.37;51.00;101682.84;5077326;28;47864;-73
2023/06/27 05:42:56;;;;;;;;;4.25;4.00;;;;;18.35;50.76;101679.41;5074485;27;45550;-73
2023/06/27 05:45:21;;;;;;;;;6.00;3.50;;;;;18.37;50.92;101684.66;5073575;28;53378;-71
2023/06/27 05:47:47;;;;;;;;;5.75;3.00;;;;;18.42;50.88;101669.41;5074728;28;68689;-72
2023/06/27 05:50:12;;;;;;;;;4.75;3.50;;;;;18.47;51.29;101663.88;5056351;27;67309;-72
2023/06/27 05:52:37;;;;;;;;;5.75;2.50;;;;;18.48;50.78;101665.63;5073236;27;45493;-72
2023/06/27 05:55:03;;;;;;;;;3.50;2.00;;;;;18.48;50.98;101658.50;5068520;28;54246;-72
2023/06/27 05:57:28;;;;;;;;;4.50;3.75;;;;;18.52;51.40;101653.94;5076138;27;45446;-71
2023/06/27 05:59:53;;;;;;;;;4.00;4.00;;;;;18.53;50.96;101659.16;5071579;28;46394;-72
2023/06/27 06:02:19;;;;;;;;;4.00;4.00;;;;;18.61;50.97;101658.84;5062133;28;57782;-71
2023/06/27 06:04:44;;;;;;;;;3.50;3.50;;;;;18.66;50.93;101656.84;5067603;27;45525;-71
2023/06/27 06:07:10;;;;;;;;;2.25;2.25;;;;;18.75;50.99;101659.06;5079784;28;67371;-72
2023/06/27 06:09:35;;;;;;;;;2.00;2.00;;;;;18.75;51.18;101664.38;5064143;28;54002;-72
2023/06/27 06:12:01;;;;;;;;;2.25;2.25;;;;;18.83;50.78;101669.31;5071131;27;45281;-75
2023/06/27 06:14:26;;;;;;;;;6.50;4.75;;;;;18.81;51.09;101668.50;5071428;28;66339;-74
2023/06/27 06:16:51;;;;;;;;;6.00;3.00;;;;;18.85;50.68;101658.66;5075731;28;45484;-71
2023/06/27 06:19:17;;;;;;;;;6.00;3.50;;;;;18.95;50.94;101659.94;5067712;28;70776;-70
2023/06/27 06:21:42;;;;;;;;;5.25;2.00;;;;;19.03;50.86;101664.88;5075772;27;45268;-72
2023/06/27 06:24:10;;;;;;;;;6.75;3.50;;;;;19.04;51.06;101664.81;5062751;27;45455;-74
2023/06/27 06:26:36;;;;;;;;;5.00;4.00;;;;;19.16;50.80;101666.03;5074598;28;45548;-74
2023/06/27 06:29:06;;;;;;;;;6.25;3.00;;;;;19.28;50.37;101661.88;5069959;28;45645;-73
2023/06/27 06:31:31;;;;;;;;;3.75;2.50;;;;;19.23;50.37;101666.56;5074082;27;46045;-76
2023/06/27 06:33:57;;;;;;;;;4.50;3.75;;;;;19.21;50.56;101671.97;5054247;28;53425;-73
2023/06/27 06:36:23;;;;;;;;;4.75;4.25;;;;;19.14;50.81;101670.50;5070553;28;45374;-75
2023/06/27 06:38:48;;;;;;;;;3.75;2.25;;;;;19.09;50.84;101676.06;5069596;28;45629;-75
2023/06/27 06:41:14;;;;;;;;;7.25;3.75;;;;;19.07;51.18;101669.97;5068890;28;45470;-77
2023/06/27 06:43:39;;;;;;;;;3.50;2.25;;;;;19.12;51.04;101665.31;5068639;28;45468;-76
2023/06/27 06:46:05;;;;;;;;;4.00;2.25;;;;;19.15;51.04;101675.75;5073904;28;69412;-74
2023/06/27 06:48:30;;;;;;;;;8.75;5.00;;;;;19.25;50.83;101675.34;5080156;28;45302;-75
2023/06/27 06:50:55;;;;;;;;;5.00;3.25;;;;;19.38;50.86;101665.81;5066017;27;45406;-76
2023/06/27 06:53:21;;;;;;;;;3.00;2.75;;;;;19.41;50.35;101663.03;5077506;27;45433;-74
2023/06/27 06:55:46;;;;;;;;;6.25;3.00;;;;;19.34;50.69;101670.41;5070744;28;45633;-75
2023/06/27 06:58:12;;;;;;;;;6.75;4.00;;;;;19.27;50.56;101674.31;5080803;28;46987;-73
2023/06/27 07:00:37;;;;;;;;;6.75;3.75;;;;;19.27;50.91;101678.78;5059681;28;45616;-75
2023/06/27 07:03:03;;;;;;;;;5.00;2.50;;;;;19.33;50.73;101681.09;5068485;27;46149;-73
2023/06/27 07:05:29;;;;;;;;;5.25;3.75;;;;;19.38;50.43;101680.91;5070602;28;45396;-74
2023/06/27 07:07:54;;;;;;;;;2.75;2.50;;;;;19.42;50.57;101671.84;5067989;28;47013;-75
2023/06/27 07:10:20;;;;;;;;;3.75;2.00;;;;;19.50;50.42;101670.53;5073841;28;44716;-75
2023/06/27 07:12:45;;;;;;;;;6.00;3.00;;;;;19.62;50.57;101671.72;5083842;28;44770;-73
2023/06/27 07:15:11;;;;;;;;;6.00;3.50;;;;;19.76;50.27;101670.19;5082684;28;70224;-72
2023/06/27 07:17:36;;;;;;;;;5.00;3.00;;;;;19.83;49.92;101682.22;5075544;28;45332;-74
2023/06/27 07:20:04;;;;;;;;;4.25;3.00;;;;;19.82;49.83;101673.41;5054236;28;52042;-74
2023/06/27 07:22:29;;;;;;;;;3.25;2.00;;;;;19.83;49.65;101683.09;5088005;27;45387;-73
2023/06/27 07:24:54;;;;;;;;;6.00;2.75;;;;;19.83;49.30;101676.91;5067596;28;59663;-74
2023/06/27 07:27:20;;;;;;;;;6.50;4.00;;;;;19.82;49.31;101676.06;5074709;28;66674;-74
2023/06/27 07:29:45;;;;;;;;;5.75;3.00;;;;;19.90;49.34;101680.97;5067488;28;66240;-73
2023/06/27 07:32:11;;;;;;;;;5.00;2.75;;;;;19.92;49.50;101682.63;5080639;27;45310;-73
2023/06/27 07:34:37;;;;;;;;;4.25;4.00;;;;;19.99;49.21;101680.50;5067970;28;45274;-73
2023/06/27 07:37:03;;;;;;;;;7.00;4.25;;;;;20.04;48.89;101685.56;5067866;28;46884;-73
2023/06/27 07:39:28;;;;;;;;;5.25;3.25;;;;;20.06;49.26;101687.22;5065716;28;45202;-73
2023/06/27 07:41:53;;;;;;;;;7.00;5.50;;;;;20.11;48.54;101679.00;5079388;28;45394;-74
2023/06/27 07:44:19;;;;;;;;;4.50;4.25;;;;;20.18;48.40;101680.38;5069374;28;45686;-74
2023/06/27 07:46:44;;;;;;;;;3.25;2.75;;;;;20.31;48.29;101683.28;5071853;27;46329;-74
2023/06/27 07:49:10;;;;;;;;;8.00;4.00;;;;;20.42;48.56;101688.03;5069606;28;65170;-74
2023/06/27 07:51:35;;;;;;;;;3.50;2.00;;;;;20.43;48.19;101685.28;5072692;27;45510;-74
2023/06/27 07:54:02;;;;;;;;;5.75;3.25;;;;;20.51;48.17;101690.19;5067686;28;55190;-73
2023/06/27 07:56:28;;;;;;;;;5.75;5.00;;;;;20.50;48.22;101683.16;5078549;27;46220;-74
2023/06/27 07:58:53;;;;;;;;;8.00;6.00;;;;;20.59;48.13;101681.78;5078802;28;45522;-72
2023/06/27 08:01:19;;;;;;;;;10.50;6.75;;;;;20.65;47.47;101678.84;5053311;28;45296;-74
2023/06/27 08:03:44;;;;;;;;;7.00;5.25;;;;;20.70;48.00;101679.47;5072308;27;56972;-74
2023/06/27 08:06:09;;;;;;;;;6.75;4.00;;;;;20.79;47.28;101689.59;5072288;27;67835;-74
2023/06/27 08:08:37;;;;;;;;;5.25;3.00;;;;;20.82;47.29;101686.78;5078523;27;53324;-74
2023/06/27 08:11:03;;;;;;;;;7.25;2.75;;;;;20.90;47.47;101682.81;5076402;28;45300;-74
2023/06/27 08:13:29;;;;;;;;;5.50;3.25;;;;;20.94;47.69;101684.38;5076908;28;45351;-74
2023/06/27 08:15:54;;;;;;;;;11.00;4.00;;;;;20.98;46.80;101669.94;5049237;28;68973;-74
2023/06/27 08:18:20;;;;;;;;;3.50;3.00;;;;;21.03;47.25;101673.19;5072229;28;45220;-74
2023/06/27 08:20:46;;;;;;;;;4.50;2.25;;;;;21.09;46.63;101674.66;5071734;28;45448;-74
2023/06/27 08:23:11;;;;;;;;;8.00;5.50;;;;;21.18;46.93;101680.31;5076975;28;72612;-74
2023/06/27 08:25:36;;;;;;;;;6.25;3.00;;;;;21.24;46.74;101674.63;5074098;28;61829;-74
2023/06/27 08:28:02;;;;;;;;;3.75;3.50;;;;;21.32;46.25;101678.66;5075782;28;69413;-73
2023/06/27 08:30:27;;;;;;;;;4.25;3.00;;;;;21.36;46.13;101678.41;5074341;27;45555;-74
2023/06/27 08:32:54;;;;;;;;;5.00;2.50;;;;;21.45;46.43;101678.84;5067571;28;45813;-74
2023/06/27 08:35:20;;;;;;;;;3.50;3.00;;;;;21.46;45.59;101673.47;5061792;28;47803;-74
2023/06/27 08:37:46;;;;;;;;;4.00;3.75;;;;;21.51;45.56;101666.03;5075585;27;45745;-74
2023/06/27 08:40:18;;;;;;;;;4.00;3.00;;;;;21.57;45.47;101660.38;5053238;28;45365;-74
2023/06/27 08:42:44;;;;;;;;;4.00;2.50;;;;;21.61;44.89;101659.22;5077527;27;45609;-76
2023/06/27 08:45:10;;;;;;;;;2.75;2.75;;;;;21.64;45.36;101663.53;5062717;27;47015;-73
2023/06/27 08:47:36;;;;;;;;;8.00;4.00;;;;;21.72;45.01;101669.25;5080422;27;45798;-73
2023/06/27 08:50:03;;;;;;;;;4.25;2.75;;;;;21.80;45.06;101661.66;5073054;28;45425;-73
2023/06/27 08:52:36;;;;;;;;;30.75;24.25;;;;;21.93;44.31;101659.13;5075600;27;45291;-74
2023/06/27 08:55:03;;;;;;;;;4.75;3.25;;;;;22.02;44.34;101662.19;5062012;28;47345;-74
2023/06/27 08:57:31;;;;;;;;;2.75;2.00;;;;;22.05;44.17;101659.34;5081503;27;45241;-74
2023/06/27 09:00:04;;;;;;;;;6.00;2.75;;;;;22.09;44.06;101658.19;5075939;28;45442;-74
2023/06/27 09:02:30;;;;;;;;;3.00;3.00;;;;;22.15;43.76;101653.34;5064003;27;45471;-74
2023/06/27 09:04:55;;;;;;;;;8.25;4.00;;;;;22.23;43.17;101650.22;5078929;27;71759;-74
2023/06/27 09:07:21;;;;;;;;;4.50;4.00;;;;;22.39;43.91;101641.31;5079846;27;45771;-74
2023/06/27 09:09:48;;;;;;;;;6.50;3.25;;;;;22.51;42.90;101633.38;5077653;27;55863;-74
2023/06/27 09:12:13;;;;;;;;;4.00;3.50;;;;;22.57;42.80;101640.13;5074149;27;67753;-74
2023/06/27 09:14:39;;;;;;;;;4.50;3.00;;;;;22.59;41.75;101646.22;5078509;27;48256;-74
2023/06/27 09:17:05;;;;;;;;;2.25;2.00;;;;;22.64;41.48;101627.25;5076889;27;62044;-74
2023/06/27 09:19:32;;;;;;;;;3.00;2.00;;;;;22.74;41.42;101634.59;5055313;28;45425;-74
2023/06/27 09:21:58;;;;;;;;;3.00;1.50;;;;;22.77;41.16;101627.31;5077780;27;45295;-74
2023/06/27 09:24:23;;;;;;;;;5.50;1.75;;;;;22.80;40.32;101622.66;5063800;28;47312;-74
2023/06/27 09:26:49;;;;;;;;;4.50;1.50;;;;;22.88;40.21;101620.34;5085398;27;45021;-74
2023/06/27 09:29:14;;;;;;;;;2.50;2.50;;;;;22.93;40.54;101620.91;5081461;28;45315;-75
2023/06/27 09:31:40;;;;;;;;;0.50;0.50;;;;;22.97;39.45;101618.06;5063722;27;73051;-74
2023/06/27 09:34:06;;;;;;;;;2.00;1.25;;;;;23.03;39.81;101606.94;5081263;27;62573;-75
2023/06/27 09:36:39;;;;;;;;;4.25;2.00;;;;;23.08;40.48;101602.19;5064078;28;45379;-74
2023/06/27 09:39:09;;;;;;;;;3.00;2.00;;;;;23.21;40.73;101602.25;5073378;27;45440;-74
2023/06/27 09:41:48;;;;;;;;;2.25;1.25;;;;;23.29;40.13;101602.59;5059770;28;45592;-74
2023/06/27 09:44:14;;;;;;;;;5.50;1.25;;;;;23.35;40.30;101604.00;5052921;28;46269;-74
2023/06/27 09:46:41;;;;;;;;;3.25;1.25;;;;;23.33;39.51;101595.22;5078083;27;45417;-74
2023/06/27 09:49:08;;;;;;;;;3.00;2.00;;;;;23.35;40.04;101590.63;5078164;28;45329;-74
2023/06/27 09:51:33;;;;;;;;;3.25;2.50;;;;;23.33;39.93;101597.91;5084814;27;45405;-74
2023/06/27 09:53:59;;;;;;;;;3.25;3.25;;;;;23.34;39.24;101597.81;5080815;28;63844;-75
2023/06/27 09:56:29;;;;;;;;;3.50;2.50;;;;;23.36;39.28;101595.03;5077545;28;45325;-74
2023/06/27 09:58:55;;;;;;;;;2.50;1.50;;;;;23.41;39.53;101585.75;5061755;28;45233;-74
2023/06/27 10:01:23;;;;;;;;;3.75;2.25;;;;;23.46;38.18;101591.63;5081853;27;45793;-74
2023/06/27 10:03:49;;;;;;;;;4.50;4.00;;;;;23.55;38.79;101586.59;5078942;27;47511;-74
2023/06/27 10:06:14;;;;;;;;;2.75;2.75;;;;;23.61;38.64;101583.53;5058472;28;45332;-74
2023/06/27 10:08:40;;;;;;;;;7.00;5.00;;;;;23.68;39.26;101576.78;5071819;27;45466;-74
2023/06/27 10:11:05;;;;;;;;;1.25;1.25;;;;;23.70;38.42;101577.53;5072154;28;45503;-74
2023/06/27 10:13:31;;;;;;;;;2.75;2.50;;;;;23.75;38.12;101582.56;5079665;28;45728;-75
2023/06/27 10:15:56;;;;;;;;;1.75;1.75;;;;;23.82;37.70;101582.06;5057027;28;45546;-75
2023/06/27 10:18:21;;;;;;;;;5.25;3.50;;;;;23.91;36.88;101580.56;5080504;27;60926;-75
2023/06/27 10:20:47;;;;;;;;;2.50;1.25;;;;;23.99;36.87;101580.03;5077440;27;62519;-75
2023/06/27 10:23:14;;;;;;;;;10.00;9.00;;;;;24.09;36.75;101581.09;5081254;27;45509;-75
2023/06/27 10:25:39;;;;;;;;;11.50;5.75;;;;;24.14;36.38;101578.09;5052473;28;59655;-75
2023/06/27 10:28:06;;;;;;;;;4.00;3.25;;;;;24.07;35.10;101583.88;5077254;27;60992;-74
2023/06/27 10:30:32;;;;;;;;;12.25;6.25;;;;;24.03;35.54;101577.03;5075634;28;45349;-75
2023/06/27 10:33:20;;;;;;;;;4.25;2.25;;;;;24.08;36.37;101576.69;5076106;27;46434;-75
2023/06/27 10:35:54;;;;;;;;;7.50;6.50;;;;;24.15;36.52;101574.44;5073545;28;45530;-74
2023/06/27 10:38:20;;;;;;;;;4.75;2.25;;;;;24.10;35.45;101572.13;5076846;28;45370;-74
2023/06/27 10:41:06;;;;;;;;;5.00;2.00;;;;;24.11;35.91;101578.31;5073505;27;47758;-73
2023/06/27 10:43:34;;;;;;;;;8.25;6.50;;;;;24.09;34.62;101572.22;5077395;28;46763;-74
2023/06/27 10:46:09;;;;;;;;;5.25;4.00;;;;;24.10;35.75;101581.94;5073182;28;45285;-73
2023/06/27 10:48:47;;;;;;;;;2.25;2.25;;;;;24.13;36.47;101576.38;5079408;27;45532;-74
2023/06/27 10:51:21;;;;;;;;;4.00;2.00;;;;;24.20;36.38;101588.34;5072354;27;45349;-74
2023/06/27 10:54:08;;;;;;;;;3.50;2.25;;;;;24.19;35.77;101584.81;5070266;28;47117;-74
2023/06/27 10:56:46;;;;;;;;;6.75;4.25;;;;;24.16;35.87;101581.53;5095348;27;45915;-74
2023/06/27 10:59:16;;;;;;;;;4.50;3.00;;;;;24.17;35.66;101581.41;5079119;27;46158;-74
2023/06/27 11:01:43;;;;;;;;;1.00;0.50;;;;;24.33;35.49;101577.63;5078549;27;45451;-75
2023/06/27 11:04:25;;;;;;;;;4.50;1.25;;;;;24.58;34.82;101585.63;5059632;28;47036;-75
2023/06/27 11:07:00;;;;;;;;;10.50;5.25;;;;;24.71;34.98;101580.22;5079257;27;45530;-75
2023/06/27 11:09:30;;;;;;;;;3.50;2.75;;;;;24.84;34.77;101593.56;5092532;27;45480;-73
2023/06/27 11:12:07;;;;;;;;;5.50;1.00;;;;;24.88;34.73;101573.63;5076636;28;45472;-73
2023/06/27 11:14:43;;;;;;;;;3.50;1.75;;;;;24.88;35.02;101578.13;5077394;27;45568;-73
2023/06/27 11:17:09;;;;;;;;;14.25;11.25;;;;;24.90;35.13;101568.19;5074483;28;45454;-73
2023/06/27 11:19:36;;;;;;;;;5.25;1.75;;;;;24.94;34.50;101557.09;5074881;28;45517;-74
2023/06/27 11:22:02;;;;;;;;;14.50;11.25;;;;;25.06;35.26;101568.72;5078269;28;45496;-74